sensor_id;sensor_type;location;lat;lon;timestamp;P1;durP1;ratioP1;P2;durP2;ratioP2
6131;SDS011;3097;42.692;23.278;2024-02-16T00:01:18;77.23;;;35.93;;
6131;SDS011;3097;42.692;23.278;2024-02-16T00:03:43;85.07;;;34.97;;
6131;SDS011;3097;42.692;23.278;2024-02-16T00:06:09;78.53;;;36.83;;
6131;SDS011;3097;42.692;23.278;2024-02-16T00:08:35;72.87;;;34.57;;
6131;SDS011;3097;42.692;23.278;2024-02-16T00:11:04;70.03;;;32.97;;
6131;SDS011;3097;42.692;23.278;2024-02-16T00:13:30;68.30;;;31.20;;
6131;SDS011;3097;42.692;23.278;2024-02-16T00:15:55;70.80;;;32.27;;
6131;SDS011;3097;42.692;23.278;2024-02-16T00:18:22;75.30;;;34.97;;
6131;SDS011;3097;42.692;23.278;2024-02-16T00:20:47;74.97;;;33.20;;
6131;SDS011;3097;42.692;23.278;2024-02-16T00:23:13;76.27;;;33.40;;
6131;SDS011;3097;42.692;23.278;2024-02-16T00:25:38;85.67;;;35.60;;
6131;SDS011;3097;42.692;23.278;2024-02-16T00:28:05;74.43;;;32.93;;
6131;SDS011;3097;42.692;23.278;2024-02-16T00:30:31;65.63;;;32.57;;
6131;SDS011;3097;42.692;23.278;2024-02-16T00:32:56;69.57;;;32.40;;
6131;SDS011;3097;42.692;23.278;2024-02-16T00:35:22;64.87;;;32.13;;
6131;SDS011;3097;42.692;23.278;2024-02-16T00:37:48;70.80;;;32.47;;
6131;SDS011;3097;42.692;23.278;2024-02-16T00:40:14;76.27;;;31.90;;
6131;SDS011;3097;42.692;23.278;2024-02-16T00:42:39;61.97;;;29.50;;
6131;SDS011;3097;42.692;23.278;2024-02-16T00:45:05;54.43;;;27.97;;
6131;SDS011;3097;42.692;23.278;2024-02-16T00:47:31;57.77;;;27.87;;
6131;SDS011;3097;42.692;23.278;2024-02-16T00:49:56;56.60;;;26.50;;
6131;SDS011;3097;42.692;23.278;2024-02-16T00:52:22;47.57;;;24.50;;
6131;SDS011;3097;42.692;23.278;2024-02-16T00:54:48;50.67;;;24.80;;
6131;SDS011;3097;42.692;23.278;2024-02-16T00:57:14;46.80;;;22.60;;
6131;SDS011;3097;42.692;23.278;2024-02-16T00:59:40;40.77;;;21.20;;
6131;SDS011;3097;42.692;23.278;2024-02-16T01:02:06;45.60;;;21.57;;
6131;SDS011;3097;42.692;23.278;2024-02-16T01:04:32;44.50;;;21.03;;
6131;SDS011;3097;42.692;23.278;2024-02-16T01:06:58;44.93;;;21.13;;
6131;SDS011;3097;42.692;23.278;2024-02-16T01:09:24;39.27;;;20.30;;
6131;SDS011;3097;42.692;23.278;2024-02-16T01:11:50;42.43;;;20.40;;
6131;SDS011;3097;42.692;23.278;2024-02-16T01:14:15;38.03;;;19.40;;
6131;SDS011;3097;42.692;23.278;2024-02-16T01:16:41;39.97;;;19.83;;
6131;SDS011;3097;42.692;23.278;2024-02-16T01:19:06;35.97;;;18.43;;
6131;SDS011;3097;42.692;23.278;2024-02-16T01:21:32;36.83;;;18.23;;
6131;SDS011;3097;42.692;23.278;2024-02-16T01:23:58;35.10;;;17.90;;
6131;SDS011;3097;42.692;23.278;2024-02-16T01:26:26;36.47;;;17.23;;
6131;SDS011;3097;42.692;23.278;2024-02-16T01:28:52;35.10;;;17.10;;
6131;SDS011;3097;42.692;23.278;2024-02-16T01:31:18;30.43;;;16.47;;
6131;SDS011;3097;42.692;23.278;2024-02-16T01:33:43;34.10;;;16.70;;
6131;SDS011;3097;42.692;23.278;2024-02-16T01:36:09;31.03;;;16.17;;
6131;SDS011;3097;42.692;23.278;2024-02-16T01:38:35;31.23;;;14.60;;
6131;SDS011;3097;42.692;23.278;2024-02-16T01:41:01;30.10;;;16.50;;
6131;SDS011;3097;42.692;23.278;2024-02-16T01:43:27;30.37;;;14.97;;
6131;SDS011;3097;42.692;23.278;2024-02-16T01:45:53;31.97;;;15.23;;
6131;SDS011;3097;42.692;23.278;2024-02-16T01:48:19;32.93;;;15.80;;
6131;SDS011;3097;42.692;23.278;2024-02-16T01:50:45;25.90;;;14.13;;
6131;SDS011;3097;42.692;23.278;2024-02-16T01:53:13;28.67;;;13.13;;
6131;SDS011;3097;42.692;23.278;2024-02-16T01:55:44;24.27;;;13.17;;
6131;SDS011;3097;42.692;23.278;2024-02-16T01:58:11;25.40;;;13.87;;
6131;SDS011;3097;42.692;23.278;2024-02-16T02:00:36;23.47;;;13.27;;
6131;SDS011;3097;42.692;23.278;2024-02-16T02:03:02;24.90;;;12.57;;
6131;SDS011;3097;42.692;23.278;2024-02-16T02:05:28;21.77;;;12.80;;
6131;SDS011;3097;42.692;23.278;2024-02-16T02:07:54;23.27;;;12.17;;
6131;SDS011;3097;42.692;23.278;2024-02-16T02:10:20;24.73;;;12.93;;
6131;SDS011;3097;42.692;23.278;2024-02-16T02:12:47;22.40;;;12.27;;
6131;SDS011;3097;42.692;23.278;2024-02-16T02:15:12;22.83;;;11.57;;
6131;SDS011;3097;42.692;23.278;2024-02-16T02:17:38;24.10;;;12.30;;
6131;SDS011;3097;42.692;23.278;2024-02-16T02:20:04;23.90;;;11.53;;
6131;SDS011;3097;42.692;23.278;2024-02-16T02:22:33;22.00;;;11.43;;
6131;SDS011;3097;42.692;23.278;2024-02-16T02:24:59;23.83;;;11.87;;
6131;SDS011;3097;42.692;23.278;2024-02-16T02:27:24;20.67;;;11.20;;
6131;SDS011;3097;42.692;23.278;2024-02-16T02:29:50;20.97;;;11.60;;
6131;SDS011;3097;42.692;23.278;2024-02-16T02:32:16;19.17;;;10.80;;
6131;SDS011;3097;42.692;23.278;2024-02-16T02:34:42;22.20;;;11.80;;
6131;SDS011;3097;42.692;23.278;2024-02-16T02:37:08;20.33;;;12.03;;
6131;SDS011;3097;42.692;23.278;2024-02-16T02:39:34;21.47;;;10.90;;
6131;SDS011;3097;42.692;23.278;2024-02-16T02:41:59;20.50;;;10.83;;
6131;SDS011;3097;42.692;23.278;2024-02-16T02:44:25;19.27;;;11.43;;
6131;SDS011;3097;42.692;23.278;2024-02-16T02:46:51;20.77;;;11.43;;
6131;SDS011;3097;42.692;23.278;2024-02-16T02:49:17;19.30;;;10.87;;
6131;SDS011;3097;42.692;23.278;2024-02-16T02:51:42;21.13;;;11.37;;
6131;SDS011;3097;42.692;23.278;2024-02-16T02:54:08;21.33;;;11.27;;
6131;SDS011;3097;42.692;23.278;2024-02-16T02:56:33;19.17;;;11.40;;
6131;SDS011;3097;42.692;23.278;2024-02-16T02:58:59;19.77;;;12.10;;
6131;SDS011;3097;42.692;23.278;2024-02-16T03:01:25;21.63;;;11.97;;
6131;SDS011;3097;42.692;23.278;2024-02-16T03:03:52;21.90;;;10.80;;
6131;SDS011;3097;42.692;23.278;2024-02-16T03:06:20;23.67;;;11.20;;
6131;SDS011;3097;42.692;23.278;2024-02-16T03:08:46;22.80;;;11.83;;
6131;SDS011;3097;42.692;23.278;2024-02-16T03:11:12;21.20;;;12.03;;
6131;SDS011;3097;42.692;23.278;2024-02-16T03:13:38;26.83;;;12.00;;
6131;SDS011;3097;42.692;23.278;2024-02-16T03:16:03;20.67;;;11.83;;
6131;SDS011;3097;42.692;23.278;2024-02-16T03:18:29;19.97;;;10.83;;
6131;SDS011;3097;42.692;23.278;2024-02-16T03:20:56;21.23;;;11.87;;
6131;SDS011;3097;42.692;23.278;2024-02-16T03:23:22;24.17;;;13.10;;
6131;SDS011;3097;42.692;23.278;2024-02-16T03:25:47;22.47;;;12.00;;
6131;SDS011;3097;42.692;23.278;2024-02-16T03:28:13;22.10;;;12.67;;
6131;SDS011;3097;42.692;23.278;2024-02-16T03:30:39;22.40;;;12.60;;
6131;SDS011;3097;42.692;23.278;2024-02-16T03:33:05;26.47;;;13.47;;
6131;SDS011;3097;42.692;23.278;2024-02-16T03:35:31;25.57;;;14.83;;
6131;SDS011;3097;42.692;23.278;2024-02-16T03:37:56;29.47;;;15.10;;
6131;SDS011;3097;42.692;23.278;2024-02-16T03:40:22;33.00;;;16.30;;
6131;SDS011;3097;42.692;23.278;2024-02-16T03:42:50;32.00;;;17.57;;
6131;SDS011;3097;42.692;23.278;2024-02-16T03:45:16;39.00;;;19.07;;
6131;SDS011;3097;42.692;23.278;2024-02-16T03:47:41;39.37;;;21.03;;
6131;SDS011;3097;42.692;23.278;2024-02-16T03:50:07;47.57;;;23.87;;
6131;SDS011;3097;42.692;23.278;2024-02-16T03:52:33;47.67;;;23.30;;
6131;SDS011;3097;42.692;23.278;2024-02-16T03:54:58;59.53;;;26.30;;
6131;SDS011;3097;42.692;23.278;2024-02-16T03:57:24;55.80;;;24.93;;
6131;SDS011;3097;42.692;23.278;2024-02-16T03:59:50;61.50;;;26.67;;
6131;SDS011;3097;42.692;23.278;2024-02-16T04:02:15;54.43;;;26.27;;
6131;SDS011;3097;42.692;23.278;2024-02-16T04:04:41;48.90;;;24.27;;
6131;SDS011;3097;42.692;23.278;2024-02-16T04:07:07;57.60;;;27.97;;
6131;SDS011;3097;42.692;23.278;2024-02-16T04:09:33;59.10;;;27.13;;
6131;SDS011;3097;42.692;23.278;2024-02-16T04:11:59;55.40;;;27.57;;
6131;SDS011;3097;42.692;23.278;2024-02-16T04:14:29;54.83;;;23.80;;
6131;SDS011;3097;42.692;23.278;2024-02-16T04:16:56;45.10;;;23.70;;
6131;SDS011;3097;42.692;23.278;2024-02-16T04:19:25;51.80;;;25.37;;
6131;SDS011;3097;42.692;23.278;2024-02-16T04:21:51;49.40;;;24.93;;
6131;SDS011;3097;42.692;23.278;2024-02-16T04:24:16;53.90;;;27.43;;
6131;SDS011;3097;42.692;23.278;2024-02-16T04:26:42;55.80;;;27.83;;
6131;SDS011;3097;42.692;23.278;2024-02-16T04:29:07;53.87;;;27.57;;
6131;SDS011;3097;42.692;23.278;2024-02-16T04:31:33;55.73;;;27.10;;
6131;SDS011;3097;42.692;23.278;2024-02-16T04:33:59;61.50;;;30.07;;
6131;SDS011;3097;42.692;23.278;2024-02-16T04:36:24;62.13;;;28.73;;
6131;SDS011;3097;42.692;23.278;2024-02-16T04:38:50;71.60;;;33.63;;
6131;SDS011;3097;42.692;23.278;2024-02-16T04:41:16;71.20;;;32.63;;
6131;SDS011;3097;42.692;23.278;2024-02-16T04:43:41;75.53;;;33.57;;
6131;SDS011;3097;42.692;23.278;2024-02-16T04:46:07;79.47;;;34.07;;
6131;SDS011;3097;42.692;23.278;2024-02-16T04:48:38;80.70;;;34.30;;
6131;SDS011;3097;42.692;23.278;2024-02-16T04:51:04;72.60;;;33.53;;
6131;SDS011;3097;42.692;23.278;2024-02-16T04:53:30;80.47;;;34.07;;
6131;SDS011;3097;42.692;23.278;2024-02-16T04:55:55;86.33;;;35.70;;
6131;SDS011;3097;42.692;23.278;2024-02-16T04:58:20;78.43;;;34.40;;
6131;SDS011;3097;42.692;23.278;2024-02-16T05:00:47;76.17;;;35.50;;
6131;SDS011;3097;42.692;23.278;2024-02-16T05:03:12;75.53;;;34.27;;
6131;SDS011;3097;42.692;23.278;2024-02-16T05:05:38;80.50;;;35.90;;
6131;SDS011;3097;42.692;23.278;2024-02-16T05:08:03;82.00;;;36.17;;
6131;SDS011;3097;42.692;23.278;2024-02-16T05:10:30;79.57;;;35.37;;
6131;SDS011;3097;42.692;23.278;2024-02-16T05:12:56;83.93;;;36.63;;
6131;SDS011;3097;42.692;23.278;2024-02-16T05:15:23;82.63;;;35.83;;
6131;SDS011;3097;42.692;23.278;2024-02-16T05:17:49;76.63;;;35.50;;
6131;SDS011;3097;42.692;23.278;2024-02-16T05:20:15;88.20;;;38.27;;
6131;SDS011;3097;42.692;23.278;2024-02-16T05:22:41;96.00;;;41.63;;
6131;SDS011;3097;42.692;23.278;2024-02-16T05:25:08;95.83;;;38.97;;
6131;SDS011;3097;42.692;23.278;2024-02-16T05:27:35;95.60;;;40.17;;
6131;SDS011;3097;42.692;23.278;2024-02-16T05:30:01;96.37;;;39.73;;
6131;SDS011;3097;42.692;23.278;2024-02-16T05:32:27;91.03;;;41.83;;
6131;SDS011;3097;42.692;23.278;2024-02-16T05:34:52;86.07;;;38.47;;
6131;SDS011;3097;42.692;23.278;2024-02-16T05:37:18;82.87;;;36.40;;
6131;SDS011;3097;42.692;23.278;2024-02-16T05:39:45;87.30;;;37.43;;
6131;SDS011;3097;42.692;23.278;2024-02-16T05:42:22;76.57;;;34.67;;
6131;SDS011;3097;42.692;23.278;2024-02-16T05:45:09;79.33;;;33.67;;
6131;SDS011;3097;42.692;23.278;2024-02-16T05:47:36;79.33;;;36.33;;
6131;SDS011;3097;42.692;23.278;2024-02-16T05:50:03;78.73;;;34.33;;
6131;SDS011;3097;42.692;23.278;2024-02-16T05:52:30;83.20;;;37.27;;
6131;SDS011;3097;42.692;23.278;2024-02-16T05:54:55;78.13;;;35.97;;
6131;SDS011;3097;42.692;23.278;2024-02-16T05:57:21;80.63;;;35.40;;
6131;SDS011;3097;42.692;23.278;2024-02-16T05:59:46;73.13;;;33.07;;
6131;SDS011;3097;42.692;23.278;2024-02-16T06:02:12;88.50;;;35.83;;
6131;SDS011;3097;42.692;23.278;2024-02-16T06:04:38;83.87;;;36.53;;
6131;SDS011;3097;42.692;23.278;2024-02-16T06:07:04;90.57;;;37.63;;
6131;SDS011;3097;42.692;23.278;2024-02-16T06:09:31;85.00;;;34.50;;
6131;SDS011;3097;42.692;23.278;2024-02-16T06:12:02;73.83;;;33.67;;
6131;SDS011;3097;42.692;23.278;2024-02-16T06:14:29;85.63;;;35.60;;
6131;SDS011;3097;42.692;23.278;2024-02-16T06:16:58;81.00;;;35.60;;
6131;SDS011;3097;42.692;23.278;2024-02-16T06:19:25;73.33;;;32.57;;
6131;SDS011;3097;42.692;23.278;2024-02-16T06:21:50;63.83;;;29.10;;
6131;SDS011;3097;42.692;23.278;2024-02-16T06:24:16;63.43;;;30.10;;
6131;SDS011;3097;42.692;23.278;2024-02-16T06:26:42;54.83;;;26.97;;
6131;SDS011;3097;42.692;23.278;2024-02-16T06:29:08;56.33;;;26.90;;
6131;SDS011;3097;42.692;23.278;2024-02-16T06:31:34;52.97;;;27.00;;
6131;SDS011;3097;42.692;23.278;2024-02-16T06:33:59;54.20;;;26.77;;
6131;SDS011;3097;42.692;23.278;2024-02-16T06:36:25;54.97;;;25.57;;
6131;SDS011;3097;42.692;23.278;2024-02-16T06:38:50;63.73;;;26.90;;
6131;SDS011;3097;42.692;23.278;2024-02-16T06:41:16;55.80;;;26.90;;
6131;SDS011;3097;42.692;23.278;2024-02-16T06:43:42;52.47;;;26.50;;
6131;SDS011;3097;42.692;23.278;2024-02-16T06:46:08;59.87;;;26.73;;
6131;SDS011;3097;42.692;23.278;2024-02-16T06:48:34;63.67;;;28.07;;
6131;SDS011;3097;42.692;23.278;2024-02-16T06:51:00;57.97;;;26.93;;
6131;SDS011;3097;42.692;23.278;2024-02-16T06:53:25;55.93;;;26.53;;
6131;SDS011;3097;42.692;23.278;2024-02-16T06:55:51;55.50;;;26.40;;
6131;SDS011;3097;42.692;23.278;2024-02-16T06:58:16;58.23;;;26.33;;
6131;SDS011;3097;42.692;23.278;2024-02-16T07:00:42;55.77;;;27.00;;
6131;SDS011;3097;42.692;23.278;2024-02-16T07:03:08;50.73;;;24.60;;
6131;SDS011;3097;42.692;23.278;2024-02-16T07:05:34;47.63;;;24.13;;
6131;SDS011;3097;42.692;23.278;2024-02-16T07:08:00;48.57;;;25.17;;
6131;SDS011;3097;42.692;23.278;2024-02-16T07:10:25;51.70;;;25.27;;
6131;SDS011;3097;42.692;23.278;2024-02-16T07:12:51;48.07;;;24.30;;
6131;SDS011;3097;42.692;23.278;2024-02-16T07:15:16;55.97;;;24.00;;
6131;SDS011;3097;42.692;23.278;2024-02-16T07:17:42;50.73;;;25.00;;
6131;SDS011;3097;42.692;23.278;2024-02-16T07:20:07;48.43;;;23.60;;
6131;SDS011;3097;42.692;23.278;2024-02-16T07:22:33;45.07;;;22.97;;
6131;SDS011;3097;42.692;23.278;2024-02-16T07:24:59;45.47;;;22.80;;
6131;SDS011;3097;42.692;23.278;2024-02-16T07:27:30;42.70;;;21.70;;
6131;SDS011;3097;42.692;23.278;2024-02-16T07:29:55;45.57;;;21.73;;
6131;SDS011;3097;42.692;23.278;2024-02-16T07:32:21;45.83;;;22.10;;
6131;SDS011;3097;42.692;23.278;2024-02-16T07:34:47;48.77;;;22.50;;
6131;SDS011;3097;42.692;23.278;2024-02-16T07:37:13;41.67;;;22.87;;
6131;SDS011;3097;42.692;23.278;2024-02-16T07:39:40;43.37;;;23.17;;
6131;SDS011;3097;42.692;23.278;2024-02-16T07:42:06;49.63;;;22.63;;
6131;SDS011;3097;42.692;23.278;2024-02-16T07:44:37;41.07;;;21.67;;
6131;SDS011;3097;42.692;23.278;2024-02-16T07:47:02;37.63;;;20.97;;
6131;SDS011;3097;42.692;23.278;2024-02-16T07:49:28;38.00;;;20.27;;
6131;SDS011;3097;42.692;23.278;2024-02-16T07:51:54;32.90;;;19.60;;
6131;SDS011;3097;42.692;23.278;2024-02-16T07:54:20;35.80;;;20.60;;
6131;SDS011;3097;42.692;23.278;2024-02-16T07:56:46;41.93;;;21.13;;
6131;SDS011;3097;42.692;23.278;2024-02-16T07:59:11;35.57;;;21.73;;
6131;SDS011;3097;42.692;23.278;2024-02-16T08:01:37;35.63;;;20.70;;
6131;SDS011;3097;42.692;23.278;2024-02-16T08:04:02;30.87;;;19.70;;
6131;SDS011;3097;42.692;23.278;2024-02-16T08:06:28;31.07;;;20.07;;
6131;SDS011;3097;42.692;23.278;2024-02-16T08:08:54;30.20;;;18.87;;
6131;SDS011;3097;42.692;23.278;2024-02-16T08:11:19;25.17;;;15.47;;
6131;SDS011;3097;42.692;23.278;2024-02-16T08:13:45;16.17;;;12.40;;
6131;SDS011;3097;42.692;23.278;2024-02-16T08:16:11;19.43;;;12.13;;
6131;SDS011;3097;42.692;23.278;2024-02-16T08:18:37;15.20;;;12.20;;
6131;SDS011;3097;42.692;23.278;2024-02-16T08:21:02;19.27;;;12.13;;
6131;SDS011;3097;42.692;23.278;2024-02-16T08:23:28;19.50;;;12.13;;
6131;SDS011;3097;42.692;23.278;2024-02-16T08:25:53;17.40;;;12.73;;
6131;SDS011;3097;42.692;23.278;2024-02-16T08:28:19;22.47;;;15.40;;
6131;SDS011;3097;42.692;23.278;2024-02-16T08:30:44;24.43;;;16.93;;
6131;SDS011;3097;42.692;23.278;2024-02-16T08:33:10;29.63;;;16.90;;
6131;SDS011;3097;42.692;23.278;2024-02-16T08:35:38;32.83;;;17.43;;
6131;SDS011;3097;42.692;23.278;2024-02-16T08:38:04;26.90;;;18.33;;
6131;SDS011;3097;42.692;23.278;2024-02-16T08:40:30;35.27;;;17.27;;
6131;SDS011;3097;42.692;23.278;2024-02-16T08:42:55;33.00;;;17.63;;
6131;SDS011;3097;42.692;23.278;2024-02-16T08:45:21;23.93;;;15.90;;
6131;SDS011;3097;42.692;23.278;2024-02-16T08:47:46;27.07;;;17.23;;
6131;SDS011;3097;42.692;23.278;2024-02-16T08:50:12;24.57;;;16.40;;
6131;SDS011;3097;42.692;23.278;2024-02-16T08:52:38;24.80;;;16.10;;
6131;SDS011;3097;42.692;23.278;2024-02-16T08:55:04;25.50;;;15.03;;
6131;SDS011;3097;42.692;23.278;2024-02-16T08:57:31;30.67;;;17.90;;
6131;SDS011;3097;42.692;23.278;2024-02-16T08:59:57;24.33;;;15.57;;
6131;SDS011;3097;42.692;23.278;2024-02-16T09:02:22;20.80;;;13.83;;
6131;SDS011;3097;42.692;23.278;2024-02-16T09:04:48;17.77;;;13.80;;
6131;SDS011;3097;42.692;23.278;2024-02-16T09:07:13;20.47;;;13.93;;
6131;SDS011;3097;42.692;23.278;2024-02-16T09:09:39;22.73;;;14.23;;
6131;SDS011;3097;42.692;23.278;2024-02-16T09:12:04;20.90;;;12.73;;
6131;SDS011;3097;42.692;23.278;2024-02-16T09:14:30;20.53;;;14.57;;
6131;SDS011;3097;42.692;23.278;2024-02-16T09:16:57;16.63;;;11.63;;
6131;SDS011;3097;42.692;23.278;2024-02-16T09:19:22;14.23;;;10.50;;
6131;SDS011;3097;42.692;23.278;2024-02-16T09:21:48;11.53;;;9.20;;
6131;SDS011;3097;42.692;23.278;2024-02-16T09:24:19;16.43;;;10.33;;
6131;SDS011;3097;42.692;23.278;2024-02-16T09:26:45;13.07;;;10.13;;
6131;SDS011;3097;42.692;23.278;2024-02-16T09:29:12;15.57;;;9.63;;
6131;SDS011;3097;42.692;23.278;2024-02-16T09:31:40;20.97;;;12.10;;
6131;SDS011;3097;42.692;23.278;2024-02-16T09:34:06;15.97;;;8.60;;
6131;SDS011;3097;42.692;23.278;2024-02-16T09:36:32;7.93;;;6.97;;
6131;SDS011;3097;42.692;23.278;2024-02-16T09:38:57;6.73;;;6.00;;
6131;SDS011;3097;42.692;23.278;2024-02-16T09:41:23;7.17;;;6.50;;
6131;SDS011;3097;42.692;23.278;2024-02-16T09:43:49;6.27;;;5.50;;
6131;SDS011;3097;42.692;23.278;2024-02-16T09:46:18;9.07;;;6.43;;
6131;SDS011;3097;42.692;23.278;2024-02-16T09:48:45;7.20;;;6.53;;
6131;SDS011;3097;42.692;23.278;2024-02-16T09:51:13;6.77;;;6.13;;
6131;SDS011;3097;42.692;23.278;2024-02-16T09:53:39;10.70;;;6.23;;
6131;SDS011;3097;42.692;23.278;2024-02-16T09:56:05;8.50;;;6.83;;
6131;SDS011;3097;42.692;23.278;2024-02-16T09:58:34;5.80;;;5.30;;
6131;SDS011;3097;42.692;23.278;2024-02-16T10:01:00;6.47;;;5.80;;
6131;SDS011;3097;42.692;23.278;2024-02-16T10:03:29;9.33;;;6.27;;
6131;SDS011;3097;42.692;23.278;2024-02-16T10:06:07;8.27;;;5.47;;
6131;SDS011;3097;42.692;23.278;2024-02-16T10:08:35;6.40;;;5.73;;
6131;SDS011;3097;42.692;23.278;2024-02-16T10:11:12;5.73;;;5.23;;
6131;SDS011;3097;42.692;23.278;2024-02-16T10:13:39;5.63;;;5.13;;
6131;SDS011;3097;42.692;23.278;2024-02-16T10:16:06;4.80;;;4.40;;
6131;SDS011;3097;42.692;23.278;2024-02-16T10:18:34;5.50;;;5.00;;
6131;SDS011;3097;42.692;23.278;2024-02-16T10:21:00;5.50;;;4.73;;
6131;SDS011;3097;42.692;23.278;2024-02-16T10:23:26;6.27;;;5.03;;
6131;SDS011;3097;42.692;23.278;2024-02-16T10:25:51;9.23;;;6.03;;
6131;SDS011;3097;42.692;23.278;2024-02-16T10:28:17;10.47;;;6.33;;
6131;SDS011;3097;42.692;23.278;2024-02-16T10:30:45;9.40;;;6.80;;
6131;SDS011;3097;42.692;23.278;2024-02-16T10:33:13;7.93;;;6.33;;
6131;SDS011;3097;42.692;23.278;2024-02-16T10:35:38;6.70;;;6.00;;
6131;SDS011;3097;42.692;23.278;2024-02-16T10:38:05;8.77;;;6.53;;
6131;SDS011;3097;42.692;23.278;2024-02-16T10:40:38;7.27;;;6.63;;
6131;SDS011;3097;42.692;23.278;2024-02-16T10:43:04;7.57;;;5.90;;
6131;SDS011;3097;42.692;23.278;2024-02-16T10:45:34;13.23;;;9.27;;
6131;SDS011;3097;42.692;23.278;2024-02-16T10:48:04;8.97;;;6.57;;
6131;SDS011;3097;42.692;23.278;2024-02-16T10:50:34;7.53;;;6.10;;
6131;SDS011;3097;42.692;23.278;2024-02-16T10:53:22;6.60;;;6.00;;
6131;SDS011;3097;42.692;23.278;2024-02-16T10:55:50;7.77;;;6.07;;
6131;SDS011;3097;42.692;23.278;2024-02-16T10:58:17;7.90;;;6.37;;
6131;SDS011;3097;42.692;23.278;2024-02-16T11:03:25;8.57;;;6.50;;
6131;SDS011;3097;42.692;23.278;2024-02-16T11:05:53;7.07;;;6.47;;
6131;SDS011;3097;42.692;23.278;2024-02-16T11:08:20;7.83;;;6.60;;
6131;SDS011;3097;42.692;23.278;2024-02-16T11:10:58;8.30;;;6.70;;
6131;SDS011;3097;42.692;23.278;2024-02-16T11:13:31;6.47;;;5.87;;
6131;SDS011;3097;42.692;23.278;2024-02-16T11:15:58;7.60;;;6.73;;
6131;SDS011;3097;42.692;23.278;2024-02-16T11:18:28;7.57;;;6.70;;
6131;SDS011;3097;42.692;23.278;2024-02-16T11:20:55;12.50;;;6.70;;
6131;SDS011;3097;42.692;23.278;2024-02-16T11:23:27;6.20;;;5.70;;
6131;SDS011;3097;42.692;23.278;2024-02-16T11:25:54;5.83;;;5.33;;
6131;SDS011;3097;42.692;23.278;2024-02-16T11:28:25;6.50;;;5.37;;
6131;SDS011;3097;42.692;23.278;2024-02-16T11:30:52;6.60;;;6.00;;
6131;SDS011;3097;42.692;23.278;2024-02-16T11:33:17;6.37;;;5.47;;
6131;SDS011;3097;42.692;23.278;2024-02-16T11:35:51;7.60;;;5.37;;
6131;SDS011;3097;42.692;23.278;2024-02-16T11:38:18;7.03;;;5.57;;
6131;SDS011;3097;42.692;23.278;2024-02-16T11:40:52;6.07;;;5.40;;
6131;SDS011;3097;42.692;23.278;2024-02-16T11:43:22;7.00;;;6.10;;
6131;SDS011;3097;42.692;23.278;2024-02-16T11:45:48;6.83;;;6.20;;
6131;SDS011;3097;42.692;23.278;2024-02-16T11:48:18;6.40;;;5.80;;
6131;SDS011;3097;42.692;23.278;2024-02-16T11:50:46;6.37;;;5.77;;
6131;SDS011;3097;42.692;23.278;2024-02-16T11:53:15;8.03;;;6.13;;
6131;SDS011;3097;42.692;23.278;2024-02-16T11:55:45;7.10;;;6.17;;
6131;SDS011;3097;42.692;23.278;2024-02-16T11:58:13;6.33;;;5.73;;
6131;SDS011;3097;42.692;23.278;2024-02-16T12:00:40;6.50;;;5.80;;
6131;SDS011;3097;42.692;23.278;2024-02-16T12:03:06;6.63;;;6.03;;
6131;SDS011;3097;42.692;23.278;2024-02-16T12:05:33;6.80;;;5.67;;
6131;SDS011;3097;42.692;23.278;2024-02-16T12:07:58;8.77;;;6.57;;
6131;SDS011;3097;42.692;23.278;2024-02-16T12:10:24;6.37;;;5.17;;
6131;SDS011;3097;42.692;23.278;2024-02-16T12:12:51;7.70;;;6.40;;
6131;SDS011;3097;42.692;23.278;2024-02-16T12:15:17;6.60;;;6.03;;
6131;SDS011;3097;42.692;23.278;2024-02-16T12:17:44;7.40;;;6.30;;
6131;SDS011;3097;42.692;23.278;2024-02-16T12:20:13;7.20;;;6.50;;
6131;SDS011;3097;42.692;23.278;2024-02-16T12:22:39;8.73;;;5.77;;
6131;SDS011;3097;42.692;23.278;2024-02-16T12:25:05;6.67;;;6.00;;
6131;SDS011;3097;42.692;23.278;2024-02-16T12:27:31;6.73;;;5.57;;
6131;SDS011;3097;42.692;23.278;2024-02-16T12:29:56;10.97;;;5.90;;
6131;SDS011;3097;42.692;23.278;2024-02-16T12:32:22;6.63;;;5.13;;
6131;SDS011;3097;42.692;23.278;2024-02-16T12:34:47;6.23;;;5.37;;
6131;SDS011;3097;42.692;23.278;2024-02-16T12:37:13;9.87;;;5.70;;
6131;SDS011;3097;42.692;23.278;2024-02-16T12:39:38;5.90;;;5.40;;
6131;SDS011;3097;42.692;23.278;2024-02-16T12:42:05;6.00;;;5.50;;
6131;SDS011;3097;42.692;23.278;2024-02-16T12:44:30;6.07;;;5.47;;
6131;SDS011;3097;42.692;23.278;2024-02-16T12:46:56;8.07;;;5.50;;
6131;SDS011;3097;42.692;23.278;2024-02-16T12:49:21;6.30;;;5.40;;
6131;SDS011;3097;42.692;23.278;2024-02-16T12:51:50;6.47;;;5.50;;
6131;SDS011;3097;42.692;23.278;2024-02-16T12:54:17;6.27;;;5.33;;
6131;SDS011;3097;42.692;23.278;2024-02-16T12:56:47;5.97;;;5.37;;
6131;SDS011;3097;42.692;23.278;2024-02-16T12:59:14;6.70;;;6.07;;
6131;SDS011;3097;42.692;23.278;2024-02-16T13:01:40;6.23;;;5.60;;
6131;SDS011;3097;42.692;23.278;2024-02-16T13:04:07;6.07;;;5.43;;
6131;SDS011;3097;42.692;23.278;2024-02-16T13:06:33;6.20;;;5.60;;
6131;SDS011;3097;42.692;23.278;2024-02-16T13:08:58;6.00;;;5.50;;
6131;SDS011;3097;42.692;23.278;2024-02-16T13:11:24;7.70;;;5.40;;
6131;SDS011;3097;42.692;23.278;2024-02-16T13:13:50;7.33;;;5.30;;
6131;SDS011;3097;42.692;23.278;2024-02-16T13:16:16;6.30;;;5.30;;
6131;SDS011;3097;42.692;23.278;2024-02-16T13:18:42;6.17;;;4.60;;
6131;SDS011;3097;42.692;23.278;2024-02-16T13:21:07;6.50;;;4.73;;
6131;SDS011;3097;42.692;23.278;2024-02-16T13:23:33;5.20;;;4.80;;
6131;SDS011;3097;42.692;23.278;2024-02-16T13:25:58;5.87;;;5.30;;
6131;SDS011;3097;42.692;23.278;2024-02-16T13:28:24;5.87;;;5.37;;
6131;SDS011;3097;42.692;23.278;2024-02-16T13:30:49;7.63;;;6.17;;
6131;SDS011;3097;42.692;23.278;2024-02-16T13:33:15;7.93;;;5.50;;
6131;SDS011;3097;42.692;23.278;2024-02-16T13:35:41;6.00;;;4.70;;
6131;SDS011;3097;42.692;23.278;2024-02-16T13:38:06;5.77;;;5.20;;
6131;SDS011;3097;42.692;23.278;2024-02-16T13:40:32;6.17;;;5.07;;
6131;SDS011;3097;42.692;23.278;2024-02-16T13:42:59;5.83;;;4.47;;
6131;SDS011;3097;42.692;23.278;2024-02-16T13:45:45;5.50;;;4.87;;
6131;SDS011;3097;42.692;23.278;2024-02-16T13:48:14;5.43;;;4.93;;
6131;SDS011;3097;42.692;23.278;2024-02-16T13:50:39;5.47;;;4.97;;
6131;SDS011;3097;42.692;23.278;2024-02-16T13:53:05;7.53;;;5.30;;
6131;SDS011;3097;42.692;23.278;2024-02-16T13:55:30;6.73;;;5.23;;
6131;SDS011;3097;42.692;23.278;2024-02-16T13:57:56;6.07;;;5.33;;
6131;SDS011;3097;42.692;23.278;2024-02-16T14:00:21;7.10;;;4.63;;
6131;SDS011;3097;42.692;23.278;2024-02-16T14:02:46;5.77;;;5.27;;
6131;SDS011;3097;42.692;23.278;2024-02-16T14:05:15;5.20;;;4.70;;
6131;SDS011;3097;42.692;23.278;2024-02-16T14:07:41;9.80;;;7.20;;
6131;SDS011;3097;42.692;23.278;2024-02-16T14:10:07;6.03;;;5.13;;
6131;SDS011;3097;42.692;23.278;2024-02-16T14:12:33;5.63;;;5.07;;
6131;SDS011;3097;42.692;23.278;2024-02-16T14:14:59;6.47;;;4.93;;
6131;SDS011;3097;42.692;23.278;2024-02-16T14:17:25;5.47;;;5.00;;
6131;SDS011;3097;42.692;23.278;2024-02-16T14:19:50;5.07;;;4.50;;
6131;SDS011;3097;42.692;23.278;2024-02-16T14:22:16;4.97;;;4.57;;
6131;SDS011;3097;42.692;23.278;2024-02-16T14:24:42;4.90;;;4.40;;
6131;SDS011;3097;42.692;23.278;2024-02-16T14:27:07;5.40;;;4.90;;
6131;SDS011;3097;42.692;23.278;2024-02-16T14:29:33;6.70;;;5.00;;
6131;SDS011;3097;42.692;23.278;2024-02-16T14:31:58;5.20;;;4.70;;
6131;SDS011;3097;42.692;23.278;2024-02-16T14:34:25;4.30;;;3.90;;
6131;SDS011;3097;42.692;23.278;2024-02-16T14:36:50;5.60;;;4.80;;
6131;SDS011;3097;42.692;23.278;2024-02-16T14:39:16;5.37;;;4.70;;
6131;SDS011;3097;42.692;23.278;2024-02-16T14:41:41;4.90;;;4.50;;